Time;durP1;ratioP1;P1;durP2;ratioP2;P2;SDS_P1;SDS_P2;PMS_P1;PMS_P2;Temp;Humidity;BMP_temperature;BMP_pressure;BME280_temperature;BME280_humidity;BME280_pressure;Samples;Min_cycle;Max_cycle;Signal;HPM_P1;HPM_P2
2023/01/03 00:02:29;;;;;;;17.87;9.60;;;;;;;4.01;100.00;102388.69;5240472;28;20116;-72
2023/01/03 00:05:02;;;;;;;17.23;10.00;;;;;;;3.92;100.00;102399.50;5241605;28;20029;-73
2023/01/03 00:07:33;;;;;;;20.23;10.57;;;;;;;3.90;100.00;102397.72;5242444;28;20437;-73
2023/01/03 00:10:08;;;;;;;22.40;9.87;;;;;;;3.83;100.00;102392.28;5241851;28;20117;-75
2023/01/03 00:12:39;;;;;;;17.88;9.27;;;;;;;3.81;100.00;102385.28;5241868;28;20365;-73
2023/01/03 00:15:14;;;;;;;14.03;9.77;;;;;;;3.76;100.00;102391.97;5241607;28;20043;-72
2023/01/03 00:17:45;;;;;;;15.52;9.93;;;;;;;3.71;100.00;102388.31;5241752;28;20025;-73
2023/01/03 00:20:17;;;;;;;18.07;10.20;;;;;;;3.73;100.00;102390.13;5241674;28;20045;-73
2023/01/03 00:22:49;;;;;;;19.57;10.67;;;;;;;3.64;100.00;102388.06;5241957;28;20044;-72
2023/01/03 00:25:20;;;;;;;18.27;10.83;;;;;;;3.59;100.00;102386.09;5241386;28;20128;-72
2023/01/03 00:27:51;;;;;;;23.37;10.37;;;;;;;3.51;100.00;102379.75;5242145;28;20117;-72
2023/01/03 00:30:23;;;;;;;18.90;10.57;;;;;;;3.50;100.00;102380.59;5249502;28;20037;-72
2023/01/03 00:32:54;;;;;;;22.40;12.10;;;;;;;3.49;100.00;102382.25;5248613;28;20061;-73
2023/01/03 00:35:26;;;;;;;23.63;10.40;;;;;;;3.48;100.00;102393.41;5246722;28;20036;-73
2023/01/03 00:37:57;;;;;;;17.10;10.67;;;;;;;3.41;100.00;102388.78;5247027;28;20125;-72
2023/01/03 00:40:28;;;;;;;15.73;11.03;;;;;;;3.37;100.00;102392.94;5248688;28;20136;-73
2023/01/03 00:45:50;;;;;;;21.90;11.57;;;;;;;3.44;100.00;102394.94;5248266;28;20049;-73
2023/01/03 00:48:21;;;;;;;22.47;13.77;;;;;;;3.36;100.00;102400.63;5248053;28;20033;-73
2023/01/03 00:50:53;;;;;;;25.57;13.53;;;;;;;3.32;100.00;102406.44;5247717;28;20045;-73
2023/01/03 00:53:25;;;;;;;20.50;12.57;;;;;;;3.25;100.00;102407.88;5247900;28;20033;-72
2023/01/03 00:56:04;;;;;;;27.27;13.55;;;;;;;3.20;100.00;102414.53;5246996;28;20025;-72
2023/01/03 00:58:36;;;;;;;19.15;11.70;;;;;;;3.15;100.00;102411.75;5247100;28;20097;-72
2023/01/03 01:01:11;;;;;;;23.65;12.52;;;;;;;3.12;100.00;102409.03;5246982;28;20034;-72
2023/01/03 01:03:46;;;;;;;23.77;12.50;;;;;;;3.12;100.00;102418.47;5247023;28;20033;-73
2023/01/03 01:06:24;;;;;;;20.50;13.48;;;;;;;3.09;100.00;102414.06;5244786;28;20113;-73
2023/01/03 01:08:58;;;;;;;25.05;13.85;;;;;;;3.08;100.00;102422.63;5244917;28;20022;-73
2023/01/03 01:11:29;;;;;;;21.60;13.07;;;;;;;3.06;100.00;102424.25;5241735;28;20087;-73
2023/01/03 01:14:01;;;;;;;24.20;12.43;;;;;;;3.06;100.00;102416.53;5242501;28;20029;-72
2023/01/03 01:16:32;;;;;;;22.47;14.83;;;;;;;3.01;100.00;102420.56;5242222;28;20030;-73
2023/01/03 01:19:04;;;;;;;23.33;14.03;;;;;;;3.03;100.00;102427.56;5242667;28;20041;-72
2023/01/03 01:21:35;;;;;;;29.33;14.60;;;;;;;3.05;100.00;102428.50;5240971;28;20447;-72
2023/01/03 01:24:07;;;;;;;19.97;13.60;;;;;;;2.97;100.00;102429.84;5242151;28;20116;-73
2023/01/03 01:26:38;;;;;;;27.80;14.60;;;;;;;2.96;100.00;102429.78;5242147;28;20029;-74
2023/01/03 01:29:11;;;;;;;21.17;14.67;;;;;;;2.92;100.00;102439.94;5240596;28;20111;-73
2023/01/03 01:31:43;;;;;;;;;;;;;;;2.83;100.00;102441.22;5242073;28;20021;-72
2023/01/03 01:34:15;;;;;;;29.20;14.50;;;;;;;2.83;100.00;102438.66;5241414;28;20260;-72
2023/01/03 01:36:47;;;;;;;25.25;15.10;;;;;;;2.74;100.00;102441.69;5241537;28;20033;-72
2023/01/03 01:39:21;;;;;;;24.10;15.60;;;;;;;2.79;100.00;102441.91;5240265;28;20146;-72
2023/01/03 01:44:56;;;;;;;20.58;15.63;;;;;;;2.69;100.00;102448.34;5241604;28;20030;-73
2023/01/03 01:47:47;;;;;;;23.70;15.88;;;;;;;2.63;100.00;102450.63;5240941;28;20033;-71
2023/01/03 01:50:27;;;;;;;24.92;16.20;;;;;;;2.63;100.00;102454.06;5243110;28;20024;-72
2023/01/03 01:53:04;;;;;;;28.83;15.95;;;;;;;2.53;100.00;102457.03;5243483;28;20085;-72
2023/01/03 01:55:58;;;;;;;23.75;16.27;;;;;;;2.57;100.00;102465.78;5244784;28;20064;-72
2023/01/03 01:58:36;;;;;;;27.38;15.77;;;;;;;2.47;100.00;102465.34;5244410;28;20532;-72
2023/01/03 02:01:13;;;;;;;27.45;16.80;;;;;;;2.46;100.00;102465.25;5243969;28;20044;-72
2023/01/03 02:03:54;;;;;;;28.85;15.98;;;;;;;2.47;100.00;102472.19;5245107;28;20461;-72
2023/01/03 02:06:27;;;;;;;24.80;16.80;;;;;;;2.43;100.00;102465.13;5244165;28;20033;-72
2023/01/03 02:08:59;;;;;;;23.70;15.40;;;;;;;2.35;100.00;102459.59;5243877;28;20554;-72
2023/01/03 02:13:04;;;;;;;25.55;17.10;;;;;;;2.27;100.00;102455.78;5244084;28;20033;-71
2023/01/03 02:14:54;;;;;;;25.70;16.92;;;;;;;2.23;100.00;102457.31;5243878;28;20048;-73
2023/01/03 02:17:50;;;;;;;26.25;15.77;;;;;;;2.13;100.00;102460.28;5243818;28;20033;-72
2023/01/03 02:20:53;;;;;;;25.80;15.60;;;;;;;2.13;100.00;102458.56;5243547;28;20128;-72
2023/01/03 02:23:51;;;;;;;21.48;16.33;;;;;;;2.09;100.00;102461.78;5244204;28;20030;-73
2023/01/03 02:26:25;;;;;;;31.35;17.27;;;;;;;2.04;100.00;102472.66;5244499;28;20025;-72
2023/01/03 02:29:44;;;;;;;32.10;17.98;;;;;;;2.01;100.00;102470.81;5243245;28;20021;-72
2023/01/03 02:32:43;;;;;;;30.58;19.98;;;;;;;2.03;100.00;102470.91;5224993;28;20064;-72
2023/01/03 02:35:26;;;;;;;26.33;17.88;;;;;;;2.05;100.00;102475.31;5242524;28;20040;-72
2023/01/03 02:38:34;;;;;;;32.13;19.13;;;;;;;2.00;100.00;102484.50;5244351;28;20036;-72
2023/01/03 02:41:07;;;;;;;27.73;18.60;;;;;;;2.07;100.00;102471.13;5189361;28;20045;-71
2023/01/03 02:44:09;;;;;;;25.25;17.48;;;;;;;2.08;100.00;102465.19;5243631;28;20037;-71
2023/01/03 02:46:49;;;;;;;27.92;17.98;;;;;;;2.14;100.00;102455.19;5236462;28;20041;-73
2023/01/03 02:49:29;;;;;;;31.73;18.77;;;;;;;2.14;100.00;102469.72;5243177;28;20037;-73
2023/01/03 02:52:05;;;;;;;32.55;18.63;;;;;;;2.15;100.00;102463.78;5243300;28;20032;-72
2023/01/03 02:54:49;;;;;;;27.25;18.17;;;;;;;2.14;100.00;102454.28;5242346;28;20029;-72
2023/01/03 02:57:26;;;;;;;31.20;18.80;;;;;;;2.16;100.00;102465.56;5241856;28;20429;-72
2023/01/03 03:00:07;;;;;;;37.88;18.77;;;;;;;2.16;100.00;102463.00;5242797;28;20037;-73
2023/01/03 03:02:43;;;;;;;27.88;19.17;;;;;;;2.14;100.00;102460.34;5242211;28;20428;-72
2023/01/03 03:05:21;;;;;;;32.65;19.00;;;;;;;2.17;100.00;102460.50;5242869;28;20029;-72
2023/01/03 03:07:53;;;;;;;31.88;18.95;;;;;;;2.13;100.00;102465.41;5243389;28;20022;-72
2023/01/03 03:13:30;;;;;;;36.55;18.30;;;;;;;2.10;100.00;102466.13;5243262;28;20086;-71
2023/01/03 03:25:40;;;;;;;29.58;17.73;;;;;;;2.03;100.00;102470.91;5242741;28;20120;-72
2023/01/03 03:31:32;;;;;;;28.63;17.55;;;;;;;1.99;100.00;102465.59;5243420;28;20029;-72
2023/01/03 03:34:13;;;;;;;32.10;19.00;;;;;;;1.99;100.00;102459.59;5242517;28;20033;-73
2023/01/03 03:36:48;;;;;;;32.20;17.90;;;;;;;2.00;100.00;102461.34;5241374;28;20148;-72
2023/01/03 03:46:05;;;;;;;30.00;20.13;;;;;;;1.99;100.00;102470.75;5242174;28;20064;-72
2023/01/03 03:51:36;;;;;;;26.52;18.92;;;;;;;1.99;100.00;102469.88;5242074;28;20042;-72
2023/01/03 03:54:11;;;;;;;32.42;18.88;;;;;;;1.99;100.00;102460.44;5242241;28;20048;-72
2023/01/03 03:56:48;;;;;;;34.45;18.50;;;;;;;1.99;100.00;102464.72;5246159;28;20085;-73
2023/01/03 03:59:22;;;;;;;33.00;18.67;;;;;;;2.00;100.00;102464.81;5251907;28;20064;-73
2023/01/03 04:01:57;;;;;;;33.33;21.50;;;;;;;1.99;100.00;102459.59;5249026;28;20029;-73
2023/01/03 04:04:35;;;;;;;31.30;19.45;;;;;;;1.98;100.00;102463.84;5247735;28;20037;-73
2023/01/03 04:07:07;;;;;;;37.08;20.95;;;;;;;1.99;100.00;102459.59;5246434;28;20447;-73
2023/01/03 04:09:38;;;;;;;29.60;20.10;;;;;;;2.01;100.00;102455.38;5246187;28;20129;-72
2023/01/03 04:12:09;;;;;;;31.63;19.93;;;;;;;1.99;100.00;102470.75;5246660;28;20038;-72
2023/01/03 04:14:41;;;;;;;35.37;19.97;;;;;;;1.93;100.00;102464.41;5245683;28;20029;-72
2023/01/03 04:17:12;;;;;;;32.83;19.87;;;;;;;1.91;100.00;102472.06;5247363;28;20052;-72
2023/01/03 04:19:44;;;;;;;33.37;19.60;;;;;;;1.86;100.00;102470.94;5246106;28;20080;-72
2023/01/03 04:22:15;;;;;;;38.10;20.80;;;;;;;1.84;100.00;102469.13;5246358;28;20064;-72
2023/01/03 04:24:46;;;;;;;31.33;21.40;;;;;;;1.82;100.00;102462.22;5227956;28;20095;-72
2023/01/03 04:27:18;;;;;;;28.37;19.67;;;;;;;1.84;100.00;102462.28;5245901;28;20461;-73
2023/01/03 04:29:49;;;;;;;33.60;21.87;;;;;;;1.84;100.00;102469.13;5244807;28;20033;-73
2023/01/03 04:32:21;;;;;;;38.50;22.47;;;;;;;1.86;100.00;102463.22;5244295;28;20029;-72
2023/01/03 04:34:52;;;;;;;38.60;22.73;;;;;;;1.92;100.00;102462.66;5243663;28;20029;-72
2023/01/03 04:37:23;;;;;;;39.07;23.47;;;;;;;1.88;100.00;102459.03;5243176;28;20120;-71
2023/01/03 04:39:55;;;;;;;36.77;22.13;;;;;;;1.85;100.00;102455.44;5242611;28;20064;-72
2023/01/03 04:45:16;;;;;;;42.22;23.88;;;;;;;1.86;100.00;102472.66;5242327;28;20041;-72
2023/01/03 04:47:47;;;;;;;43.67;25.37;;;;;;;1.80;100.00;102468.06;5242336;28;20045;-72
2023/01/03 04:50:19;;;;;;;37.70;24.70;;;;;;;1.79;100.00;102477.47;5242033;28;20080;-73
2023/01/03 04:52:50;;;;;;;44.03;26.03;;;;;;;1.81;100.00;102473.28;5242290;28;20037;-73
2023/01/03 04:55:21;;;;;;;50.43;28.17;;;;;;;1.81;100.00;102474.97;5242160;28;20091;-73
2023/01/03 04:57:53;;;;;;;46.93;27.30;;;;;;;1.81;100.00;102464.69;5241805;28;20025;-73
2023/01/03 05:00:24;;;;;;;45.73;28.63;;;;;;;1.80;100.00;102462.91;5224063;28;20376;-73
2023/01/03 05:02:56;;;;;;;47.73;28.47;;;;;;;1.80;100.00;102468.97;5241579;28;20134;-72
2023/01/03 05:05:27;;;;;;;48.43;28.63;;;;;;;1.90;100.00;102471.97;5240277;28;20026;-73
2023/01/03 05:08:02;;;;;;;48.53;28.70;;;;;;;1.96;100.00;102464.56;5241954;28;20040;-73
2023/01/03 05:10:33;;;;;;;55.25;28.55;;;;;;;1.98;100.00;102447.50;5241436;28;20026;-73
2023/01/03 05:13:05;;;;;;;48.13;27.50;;;;;;;1.96;100.00;102454.28;5240389;28;20461;-73
2023/01/03 05:15:38;;;;;;;46.63;27.30;;;;;;;2.00;100.00;102461.34;5241182;28;20042;-73
2023/01/03 05:18:09;;;;;;;;;;;;;;;1.95;100.00;102457.69;5242502;28;20448;-73
2023/01/03 05:26:21;;;;;;;44.80;24.90;;;;;;;2.06;100.00;102445.31;5245125;28;20464;-72
2023/01/03 05:28:53;;;;;;;46.90;24.63;;;;;;;2.06;100.00;102443.66;5245021;28;20029;-73
2023/01/03 05:31:25;;;;;;;43.65;24.65;;;;;;;2.12;100.00;102443.94;5245557;28;20469;-73
2023/01/03 05:33:56;;;;;;;42.77;23.80;;;;;;;2.12;100.00;102443.06;5244813;28;20040;-72
2023/01/03 05:36:27;;;;;;;43.77;23.70;;;;;;;2.08;100.00;102436.88;5245156;28;20088;-72
2023/01/03 05:38:59;;;;;;;43.30;23.30;;;;;;;2.11;100.00;102441.28;5244579;28;20052;-73
2023/01/03 05:44:21;;;;;;;39.17;22.45;;;;;;;2.16;100.00;102435.56;5244599;28;20045;-73
2023/01/03 05:46:52;;;;;;;36.03;21.70;;;;;;;2.12;100.00;102430.19;5244740;28;20038;-73
2023/01/03 05:49:24;;;;;;;34.83;22.17;;;;;;;2.15;100.00;102435.50;5244325;28;20076;-72
2023/01/03 05:51:55;;;;;;;42.63;23.80;;;;;;;2.23;100.00;102448.72;5244635;28;20033;-72
2023/01/03 05:54:27;;;;;;;40.63;21.53;;;;;;;2.33;100.00;102448.34;5244674;28;20108;-72
2023/01/03 05:56:58;;;;;;;40.53;21.53;;;;;;;2.40;100.00;102445.28;5244736;28;20033;-72
2023/01/03 05:59:29;;;;;;;47.40;23.57;;;;;;;2.48;100.00;102427.59;5245138;28;20037;-72
2023/01/03 06:02:01;;;;;;;41.40;20.07;;;;;;;2.58;100.00;102429.81;5243708;28;20029;-71
2023/01/03 06:04:32;;;;;;;41.57;20.87;;;;;;;2.65;100.00;102418.97;5243459;28;20033;-72
2023/01/03 06:07:04;;;;;;;47.30;21.37;;;;;;;2.77;100.00;102428.06;5244730;28;20503;-71
2023/01/03 06:09:35;;;;;;;34.20;20.47;;;;;;;2.84;100.00;102428.41;5244373;28;20197;-72
2023/01/03 06:12:07;;;;;;;37.67;21.00;;;;;;;2.87;100.00;102425.97;5244008;28;20029;-73
2023/01/03 06:14:38;;;;;;;36.63;20.80;;;;;;;2.94;100.00;102427.13;5244281;28;20057;-73
2023/01/03 06:19:59;;;;;;;32.47;20.33;;;;;;;2.99;100.00;102424.78;5244132;28;20061;-72
2023/01/03 06:22:31;;;;;;;34.30;19.63;;;;;;;3.05;100.00;102419.91;5244063;28;20037;-72
2023/01/03 06:25:02;;;;;;;44.43;20.57;;;;;;;3.06;100.00;102412.25;5243752;28;20472;-72
2023/01/03 06:27:34;;;;;;;37.40;19.40;;;;;;;3.08;100.00;102415.75;5243771;28;20033;-72
2023/01/03 06:30:06;;;;;;;32.67;20.27;;;;;;;3.12;100.00;102415.91;5243784;28;20037;-72
2023/01/03 06:32:37;;;;;;;32.30;20.58;;;;;;;3.17;100.00;102416.97;5244477;28;20033;-72
2023/01/03 06:35:09;;;;;;;30.70;19.63;;;;;;;3.21;100.00;102419.75;5243937;28;20037;-71
2023/01/03 06:37:40;;;;;;;38.53;19.33;;;;;;;3.19;100.00;102411.09;5244023;28;20453;-72
2023/01/03 06:40:12;;;;;;;35.87;18.63;;;;;;;3.19;100.00;102415.34;5243868;28;20495;-72
2023/01/03 06:42:43;;;;;;;30.27;18.93;;;;;;;3.20;100.00;102407.66;5243717;28;20033;-71
2023/01/03 06:53:44;;;;;;;30.27;17.65;;;;;;;3.19;100.00;102405.94;5244090;28;20045;-72
2023/01/03 06:56:16;;;;;;;29.10;18.10;;;;;;;3.23;100.00;102391.47;5243579;28;20037;-73
2023/01/03 06:58:47;;;;;;;35.03;18.57;;;;;;;3.23;100.00;102379.47;5243953;28;20068;-72
2023/01/03 07:01:19;;;;;;;33.20;19.73;;;;;;;3.15;100.00;102380.81;5243695;28;20041;-72
2023/01/03 07:03:50;;;;;;;30.23;18.43;;;;;;;3.17;100.00;102392.09;5225763;28;20083;-73
2023/01/03 07:06:22;;;;;;;29.47;19.53;;;;;;;3.22;100.00;102400.91;5243524;28;20030;-73
2023/01/03 07:08:53;;;;;;;27.80;18.73;;;;;;;3.16;100.00;102389.47;5243155;28;20476;-72
2023/01/03 07:11:25;;;;;;;27.83;17.90;;;;;;;3.19;100.00;102400.78;5243752;28;20033;-73
2023/01/03 07:13:57;;;;;;;30.33;18.17;;;;;;;3.21;100.00;102396.56;5243661;28;20279;-72
2023/01/03 07:16:40;;;;;;;30.52;17.73;;;;;;;3.32;100.00;102424.47;5242674;28;20049;-73
2023/01/03 07:19:14;;;;;;;35.38;20.23;;;;;;;3.46;100.00;102444.00;5243674;28;20131;-73
2023/01/03 07:21:46;;;;;;;29.90;19.10;;;;;;;3.59;100.00;102445.41;5245320;28;20524;-73
2023/01/03 07:24:17;;;;;;;30.97;20.37;;;;;;;3.69;100.00;102441.53;5243979;28;20128;-73
2023/01/03 07:26:49;;;;;;;35.77;19.63;;;;;;;3.73;100.00;102433.97;5243385;28;20037;-71
2023/01/03 07:29:21;;;;;;;38.40;21.90;;;;;;;3.78;100.00;102441.91;5243753;28;20036;-72
2023/01/03 07:31:52;;;;;;;35.00;20.20;;;;;;;3.82;100.00;102434.38;5242675;28;20096;-72
2023/01/03 07:34:24;;;;;;;38.00;19.97;;;;;;;3.90;100.00;102432.13;5243202;28;20440;-73
2023/01/03 07:36:55;;;;;;;34.70;20.67;;;;;;;3.92;100.00;102434.75;5241796;28;20041;-74
2023/01/03 07:39:26;;;;;;;34.57;19.83;;;;;;;3.92;100.00;102430.47;5242938;28;20064;-73
2023/01/03 07:44:48;;;;;;;41.80;21.65;;;;;;;3.98;100.00;102430.72;5242677;28;20033;-73
2023/01/03 07:47:19;;;;;;;37.47;21.30;;;;;;;3.97;100.00;102439.28;5241970;28;20322;-73
2023/01/03 07:49:50;;;;;;;37.03;22.07;;;;;;;3.95;100.00;102435.75;5241187;28;20086;-73
2023/01/03 07:52:22;;;;;;;35.83;20.73;;;;;;;3.95;100.00;102429.72;5243038;28;20037;-73
2023/01/03 07:54:53;;;;;;;32.93;19.77;;;;;;;3.93;100.00;102442.56;5243929;28;20374;-73
2023/01/03 07:57:24;;;;;;;40.90;20.73;;;;;;;3.88;100.00;102449.25;5243432;28;20040;-74
2023/01/03 07:59:56;;;;;;;38.13;19.53;;;;;;;3.81;100.00;102452.38;5241882;28;20033;-72
2023/01/03 08:02:27;;;;;;;36.87;20.53;;;;;;;3.79;100.00;102457.47;5243074;28;20026;-73
2023/01/03 08:04:59;;;;;;;41.47;22.27;;;;;;;3.75;100.00;102455.59;5243478;28;20037;-73
2023/01/03 08:07:30;;;;;;;36.47;22.63;;;;;;;3.77;100.00;102465.97;5243201;28;20116;-73
2023/01/03 08:15:56;;;;;;;38.88;22.08;;;;;;;3.97;100.00;102472.81;5243018;28;20476;-72
2023/01/03 08:18:27;;;;;;;40.65;24.67;;;;;;;4.09;100.00;102466.41;5242794;28;20033;-74
2023/01/03 08:20:59;;;;;;;42.03;23.73;;;;;;;4.14;100.00;102475.22;5241968;28;20115;-73
2023/01/03 08:23:31;;;;;;;42.67;23.47;;;;;;;4.17;100.00;102476.22;5242054;28;20076;-73
2023/01/03 08:26:05;;;;;;;41.70;22.00;;;;;;;4.23;100.00;102487.63;5242670;28;20069;-73
2023/01/03 08:28:38;;;;;;;44.85;23.20;;;;;;;4.24;100.00;102476.50;5242158;28;20037;-74
2023/01/03 08:31:21;;;;;;;42.17;23.75;;;;;;;4.30;100.00;102477.63;5240957;28;20483;-73
2023/01/03 08:33:56;;;;;;;44.30;24.00;;;;;;;4.32;100.00;102478.53;5241649;28;20497;-73
2023/01/03 08:36:33;;;;;;;42.00;22.75;;;;;;;4.37;100.00;102471.00;5242010;28;20109;-73
2023/01/03 08:39:10;;;;;;;41.20;22.80;;;;;;;4.45;100.00;102479.03;5242267;28;20073;-73
2023/01/03 08:41:47;;;;;;;40.53;23.45;;;;;;;4.48;100.00;102484.34;5242315;28;20045;-73
2023/01/03 08:44:18;;;;;;;38.95;21.75;;;;;;;4.53;100.00;102488.84;5241543;28;20104;-74
2023/01/03 08:46:52;;;;;;;41.10;22.40;;;;;;;4.59;100.00;102497.66;5241905;28;20120;-73
2023/01/03 08:49:23;;;;;;;44.53;23.80;;;;;;;4.62;100.00;102493.50;5241953;28;20048;-73
2023/01/03 08:51:55;;;;;;;38.23;23.23;;;;;;;4.65;100.00;102487.56;5241751;28;20029;-73
2023/01/03 08:54:26;;;;;;;39.23;22.97;;;;;;;4.70;100.00;102486.03;5241707;28;20504;-73
2023/01/03 08:56:57;;;;;;;42.13;24.60;;;;;;;4.77;100.00;102492.34;5241968;28;20407;-73
2023/01/03 08:59:29;;;;;;;38.43;21.37;;;;;;;4.80;100.00;102501.09;5243189;28;20041;-72
2023/01/03 09:02:01;;;;;;;38.50;23.23;;;;;;;4.85;100.00;102498.69;5246015;28;20451;-73
2023/01/03 09:04:32;;;;;;;37.87;22.73;;;;;;;4.91;100.00;102501.47;5245753;28;20456;-73
2023/01/03 09:07:04;;;;;;;38.27;22.80;;;;;;;4.95;100.00;102507.66;5244583;28;20041;-73
2023/01/03 09:09:35;;;;;;;39.13;23.13;;;;;;;4.97;100.00;102506.00;5246448;28;20360;-72
2023/01/03 09:12:07;;;;;;;39.57;22.60;;;;;;;4.97;100.00;102501.72;5245725;28;20276;-73
2023/01/03 09:14:38;;;;;;;43.53;23.23;;;;;;;5.00;100.00;102508.72;5244899;28;20056;-72
2023/01/03 09:17:09;;;;;;;35.97;22.37;;;;;;;4.98;100.00;102512.94;5245583;28;20057;-72
2023/01/03 09:19:41;;;;;;;34.87;23.63;;;;;;;5.04;100.00;102511.47;5244193;28;20033;-72
2023/01/03 09:22:12;;;;;;;34.67;21.37;;;;;;;5.06;100.00;102516.72;5245862;28;20132;-72
2023/01/03 09:24:43;;;;;;;42.57;23.90;;;;;;;5.09;100.00;102519.41;5245244;28;20049;-72
2023/01/03 09:27:15;;;;;;;36.53;22.37;;;;;;;5.11;100.00;102516.03;5245280;28;20366;-72
2023/01/03 09:29:47;;;;;;;35.57;21.73;;;;;;;5.13;100.00;102510.06;5245431;28;20472;-72
2023/01/03 09:32:19;;;;;;;36.85;21.90;;;;;;;5.18;100.00;102516.28;5244922;28;20029;-72
2023/01/03 09:34:50;;;;;;;36.43;20.77;;;;;;;5.19;100.00;102513.75;5244814;28;20044;-72
2023/01/03 09:37:22;;;;;;;33.20;20.23;;;;;;;5.21;100.00;102509.50;5245323;28;20611;-72
2023/01/03 09:39:53;;;;;;;30.87;19.37;;;;;;;5.27;100.00;102514.03;5245068;28;20120;-72
2023/01/03 09:45:27;;;;;;;32.75;19.63;;;;;;;5.37;100.00;102518.72;5245479;28;20540;-72
2023/01/03 09:48:01;;;;;;;29.52;18.48;;;;;;;5.37;100.00;102513.53;5245093;28;20075;-72
2023/01/03 09:50:35;;;;;;;33.30;17.85;;;;;;;5.41;100.00;102519.69;5244069;28;20033;-72
2023/01/03 10:04:49;;;;;;;27.00;16.73;;;;;;;5.63;100.00;102506.69;5244604;28;20034;-72
2023/01/03 10:07:56;;;;;;;27.27;15.60;;;;;;;5.76;100.00;102501.97;5244708;28;20033;-72
2023/01/03 10:10:54;;;;;;;25.10;14.63;;;;;;;5.75;100.00;102498.50;5160896;28;20096;-73
2023/01/03 10:13:44;;;;;;;21.27;14.20;;;;;;;5.83;100.00;102509.13;5244894;28;20446;-73
2023/01/03 10:16:35;;;;;;;24.45;13.20;;;;;;;5.88;100.00;102511.88;5245041;28;20025;-72
2023/01/03 10:19:25;;;;;;;19.85;13.32;;;;;;;5.94;100.00;102505.19;5245133;28;20125;-72
2023/01/03 10:22:09;;;;;;;22.50;13.25;;;;;;;5.96;100.00;102505.25;5245060;28;20057;-72
2023/01/03 10:25:12;;;;;;;18.40;12.30;;;;;;;6.03;100.00;102517.59;5244966;28;20025;-73
2023/01/03 10:27:55;;;;;;;18.88;11.90;;;;;;;6.02;100.00;102514.13;5244923;28;20381;-72
2023/01/03 10:30:58;;;;;;;17.25;11.57;;;;;;;6.09;100.00;102507.44;5244931;28;20432;-72
2023/01/03 10:33:33;;;;;;;12.88;10.48;;;;;;;6.17;100.00;102503.41;5244860;28;20038;-73
2023/01/03 10:36:06;;;;;;;18.48;11.38;;;;;;;6.26;100.00;102496.75;5246987;28;20040;-73
2023/01/03 10:38:39;;;;;;;14.40;9.60;;;;;;;6.33;100.00;102497.03;5253485;28;20045;-72
2023/01/03 10:41:32;;;;;;;18.48;9.82;;;;;;;6.38;100.00;102508.41;5252480;28;20060;-72
2023/01/03 10:44:04;;;;;;;14.88;10.50;;;;;;;6.42;100.00;102506.78;5249481;28;20369;-72
2023/01/03 10:46:50;;;;;;;13.57;9.43;;;;;;;6.55;100.00;102505.47;5249401;28;20033;-73
2023/01/03 10:49:24;;;;;;;18.75;11.30;;;;;;;6.57;100.00;102506.41;5249561;28;20025;-72
2023/01/03 10:52:13;;;;;;;14.55;8.93;;;;;;;6.65;100.00;102504.94;5249786;28;20036;-72
2023/01/03 10:54:55;;;;;;;14.10;9.68;;;;;;;6.66;100.00;102505.81;5249151;28;20483;-72
2023/01/03 10:57:57;;;;;;;12.20;7.95;;;;;;;6.67;100.00;102502.38;5248420;28;20033;-72
2023/01/03 11:00:30;;;;;;;15.32;9.68;;;;;;;6.67;100.00;102499.81;5248618;28;20029;-73
2023/01/03 11:03:17;;;;;;;15.45;9.07;;;;;;;6.70;100.00;102500.75;5245987;28;20033;-72
2023/01/03 11:06:07;;;;;;;15.40;8.77;;;;;;;6.69;100.00;102492.94;5247671;28;20028;-72
2023/01/03 11:08:56;;;;;;;15.75;9.50;;;;;;;6.72;100.00;102498.22;5246859;28;20526;-72
2023/01/03 11:11:39;;;;;;;16.40;9.02;;;;;;;6.71;100.00;102494.75;5246768;28;20033;-73
2023/01/03 11:14:10;;;;;;;;;;;;;;;6.81;100.00;102488.16;5245593;28;20065;-73
2023/01/03 11:16:42;;;;;;;11.98;8.85;;;;;;;6.75;100.00;102488.81;5244512;28;19944;-73
2023/01/03 11:19:17;;;;;;;16.57;10.17;;;;;;;6.75;100.00;102493.13;5244320;28;20041;-72
2023/01/03 11:22:05;;;;;;;13.38;8.43;;;;;;;6.81;100.00;102492.44;5244409;28;20060;-73
2023/01/03 11:24:59;;;;;;;13.20;8.50;;;;;;;6.80;100.00;102494.16;5243959;28;20087;-72
2023/01/03 11:27:39;;;;;;;13.80;8.43;;;;;;;6.81;100.00;102482.97;5244537;28;20031;-73
2023/01/03 11:30:52;;;;;;;16.85;9.63;;;;;;;6.82;100.00;102492.47;5244024;28;20114;-73
2023/01/03 11:33:51;;;;;;;13.90;8.38;;;;;;;6.79;100.00;102487.19;5244096;28;20441;-74
2023/01/03 11:36:37;;;;;;;14.50;8.38;;;;;;;6.80;100.00;102490.69;5244132;28;20107;-74
2023/01/03 11:39:23;;;;;;;12.65;8.65;;;;;;;6.78;100.00;102493.22;5243774;28;20108;-74
2023/01/03 11:42:33;;;;;;;16.80;9.90;;;;;;;6.74;100.00;102496.56;5243750;28;20074;-73
2023/01/03 11:45:28;;;;;;;16.73;9.23;;;;;;;6.71;100.00;102494.75;5243679;28;20464;-72
2023/01/03 11:48:21;;;;;;;15.30;9.32;;;;;;;6.71;100.00;102488.69;5243501;28;20041;-72
2023/01/03 11:51:16;;;;;;;13.88;10.13;;;;;;;6.66;100.00;102478.16;5242284;28;20423;-71
2023/01/03 11:54:20;;;;;;;16.25;10.50;;;;;;;6.62;100.00;102488.38;5243231;28;20033;-72
2023/01/03 11:56:52;;;;;;;16.45;9.30;;;;;;;6.70;100.00;102486.94;5172296;28;20049;-72
2023/01/03 11:59:44;;;;;;;12.10;8.27;;;;;;;6.78;100.00;102476.78;5243154;28;20037;-71
2023/01/03 12:02:21;;;;;;;12.57;9.63;;;;;;;6.87;100.00;102477.94;5231600;28;20065;-71
2023/01/03 12:05:01;;;;;;;14.70;8.23;;;;;;;7.01;100.00;102464.50;5242349;28;20175;-71
2023/01/03 12:07:50;;;;;;;16.55;8.80;;;;;;;7.29;100.00;102459.28;5242646;28;20037;-72
2023/01/03 12:10:30;;;;;;;15.50;8.40;;;;;;;7.42;100.00;102450.13;5242742;28;20067;-72
2023/01/03 12:13:17;;;;;;;9.75;6.28;;;;;;;7.50;100.00;102458.06;5242286;28;20029;-72
2023/01/03 12:16:23;;;;;;;11.23;7.00;;;;;;;8.19;100.00;102445.97;5242735;28;20369;-72
2023/01/03 12:19:06;;;;;;;10.65;6.30;;;;;;;8.49;100.00;102453.63;5231964;28;20087;-73
2023/01/03 12:21:43;;;;;;;12.75;6.68;;;;;;;8.36;100.00;102439.44;5241809;28;20085;-73
2023/01/03 12:24:26;;;;;;;9.10;5.95;;;;;;;8.38;100.00;102442.09;5241983;28;20354;-72
2023/01/03 12:27:12;;;;;;;11.98;5.57;;;;;;;8.16;99.01;102439.00;5242356;28;20029;-71
2023/01/03 12:29:53;;;;;;;8.07;4.72;;;;;;;8.25;100.00;102430.53;5241898;28;20090;-72
2023/01/03 12:32:33;;;;;;;9.43;5.93;;;;;;;8.17;99.75;102437.28;5240670;28;20036;-73
2023/01/03 12:35:20;;;;;;;9.38;6.45;;;;;;;8.15;100.00;102436.38;5241774;28;20030;-72
2023/01/03 12:37:52;;;;;;;11.50;6.25;;;;;;;8.17;100.00;102435.53;5242583;28;20036;-72
2023/01/03 12:40:40;;;;;;;12.80;6.13;;;;;;;8.39;100.00;102421.34;5241806;28;20037;-72
2023/01/03 12:43:16;;;;;;;8.93;5.47;;;;;;;8.44;99.52;102426.66;5241582;28;20021;-73
2023/01/03 12:46:12;;;;;;;9.77;5.63;;;;;;;8.23;99.38;102437.41;5241524;28;20172;-72
2023/01/03 12:49:05;;;;;;;8.55;5.65;;;;;;;7.98;100.00;102426.41;5241838;28;20032;-72
2023/01/03 12:51:37;;;;;;;11.65;6.25;;;;;;;7.71;100.00;102429.25;5241740;28;20026;-72
2023/01/03 12:54:36;;;;;;;13.90;6.50;;;;;;;7.80;100.00;102426.84;5241540;28;20034;-72
2023/01/03 12:57:36;;;;;;;9.60;6.35;;;;;;;7.74;100.00;102420.63;5241760;28;20476;-73
2023/01/03 13:00:25;;;;;;;12.27;6.22;;;;;;;7.71;100.00;102426.66;5242193;28;20026;-73
2023/01/03 13:03:03;;;;;;;12.18;5.78;;;;;;;7.74;100.00;102425.81;5241918;28;20364;-73
2023/01/03 13:05:59;;;;;;;11.02;7.13;;;;;;;7.86;100.00;102428.75;5241621;28;20372;-73
2023/01/03 13:08:38;;;;;;;7.97;5.90;;;;;;;7.80;100.00;102432.03;5241638;28;20025;-73
2023/01/03 13:11:19;;;;;;;11.30;5.72;;;;;;;7.77;100.00;102431.97;5240951;28;20467;-73
2023/01/03 13:14:14;;;;;;;12.98;5.25;;;;;;;7.86;100.00;102423.53;5240842;28;20032;-71
2023/01/03 13:16:47;;;;;;;6.93;4.53;;;;;;;7.89;100.00;102422.72;5241933;28;20061;-73